sensor_id;sensor_type;location;lat;lon;timestamp;P1;durP1;ratioP1;P2;durP2;ratioP2
46439;SDS011;32138;50.966;6.968;2024-03-08T00:00:25;21.52;;;15.95;;
46439;SDS011;32138;50.966;6.968;2024-03-08T00:01:56;20.33;;;16.35;;
46439;SDS011;32138;50.966;6.968;2024-03-08T00:03:27;21.00;;;16.80;;
46439;SDS011;32138;50.966;6.968;2024-03-08T00:04:58;21.60;;;16.58;;
46439;SDS011;32138;50.966;6.968;2024-03-08T00:06:29;22.15;;;17.17;;
46439;SDS011;32138;50.966;6.968;2024-03-08T00:08:00;22.52;;;17.60;;
46439;SDS011;32138;50.966;6.968;2024-03-08T00:09:31;21.10;;;16.98;;
46439;SDS011;32138;50.966;6.968;2024-03-08T00:11:02;21.92;;;16.50;;
46439;SDS011;32138;50.966;6.968;2024-03-08T00:12:33;24.35;;;17.38;;
46439;SDS011;32138;50.966;6.968;2024-03-08T00:14:03;23.80;;;17.40;;
46439;SDS011;32138;50.966;6.968;2024-03-08T00:15:36;23.33;;;18.40;;
46439;SDS011;32138;50.966;6.968;2024-03-08T00:17:07;26.88;;;18.15;;
46439;SDS011;32138;50.966;6.968;2024-03-08T00:18:39;22.35;;;16.75;;
46439;SDS011;32138;50.966;6.968;2024-03-08T00:20:09;22.00;;;18.02;;
46439;SDS011;32138;50.966;6.968;2024-03-08T00:21:41;22.75;;;17.08;;
46439;SDS011;32138;50.966;6.968;2024-03-08T00:23:12;22.27;;;18.23;;
46439;SDS011;32138;50.966;6.968;2024-03-08T00:24:43;25.70;;;17.60;;
46439;SDS011;32138;50.966;6.968;2024-03-08T00:26:13;22.83;;;16.98;;
46439;SDS011;32138;50.966;6.968;2024-03-08T00:27:44;19.55;;;16.58;;
46439;SDS011;32138;50.966;6.968;2024-03-08T00:29:15;23.85;;;17.80;;
46439;SDS011;32138;50.966;6.968;2024-03-08T00:30:46;21.80;;;15.38;;
46439;SDS011;32138;50.966;6.968;2024-03-08T00:32:16;29.75;;;18.55;;
46439;SDS011;32138;50.966;6.968;2024-03-08T00:33:47;21.00;;;17.30;;
46439;SDS011;32138;50.966;6.968;2024-03-08T00:35:18;22.90;;;17.58;;
46439;SDS011;32138;50.966;6.968;2024-03-08T00:36:48;20.83;;;15.80;;
46439;SDS011;32138;50.966;6.968;2024-03-08T00:38:20;25.58;;;17.75;;
46439;SDS011;32138;50.966;6.968;2024-03-08T00:39:51;18.33;;;15.57;;
46439;SDS011;32138;50.966;6.968;2024-03-08T00:41:22;21.40;;;17.10;;
46439;SDS011;32138;50.966;6.968;2024-03-08T00:42:53;19.75;;;15.98;;
46439;SDS011;32138;50.966;6.968;2024-03-08T00:44:23;20.75;;;16.70;;
46439;SDS011;32138;50.966;6.968;2024-03-08T00:45:54;24.33;;;17.55;;
46439;SDS011;32138;50.966;6.968;2024-03-08T00:47:25;23.65;;;17.67;;
46439;SDS011;32138;50.966;6.968;2024-03-08T00:48:57;22.77;;;17.92;;
46439;SDS011;32138;50.966;6.968;2024-03-08T00:50:27;22.10;;;17.00;;
46439;SDS011;32138;50.966;6.968;2024-03-08T00:51:58;25.40;;;18.80;;
46439;SDS011;32138;50.966;6.968;2024-03-08T00:53:29;25.23;;;17.30;;
46439;SDS011;32138;50.966;6.968;2024-03-08T00:54:59;24.52;;;17.95;;
46439;SDS011;32138;50.966;6.968;2024-03-08T00:56:30;21.17;;;17.17;;
46439;SDS011;32138;50.966;6.968;2024-03-08T00:58:01;22.23;;;17.13;;
46439;SDS011;32138;50.966;6.968;2024-03-08T00:59:32;20.08;;;16.02;;
46439;SDS011;32138;50.966;6.968;2024-03-08T01:01:03;25.33;;;17.88;;
46439;SDS011;32138;50.966;6.968;2024-03-08T01:02:35;22.02;;;17.50;;
46439;SDS011;32138;50.966;6.968;2024-03-08T01:04:06;22.42;;;17.58;;
46439;SDS011;32138;50.966;6.968;2024-03-08T01:05:37;22.77;;;16.65;;
46439;SDS011;32138;50.966;6.968;2024-03-08T01:07:08;22.17;;;17.05;;
46439;SDS011;32138;50.966;6.968;2024-03-08T01:08:39;24.90;;;17.90;;
46439;SDS011;32138;50.966;6.968;2024-03-08T01:10:12;24.65;;;17.00;;
46439;SDS011;32138;50.966;6.968;2024-03-08T01:11:43;23.77;;;18.70;;
46439;SDS011;32138;50.966;6.968;2024-03-08T01:13:13;21.67;;;16.27;;
46439;SDS011;32138;50.966;6.968;2024-03-08T01:14:44;22.52;;;16.30;;
46439;SDS011;32138;50.966;6.968;2024-03-08T01:16:15;22.90;;;16.23;;
46439;SDS011;32138;50.966;6.968;2024-03-08T01:17:46;22.27;;;17.00;;
46439;SDS011;32138;50.966;6.968;2024-03-08T01:19:17;21.27;;;17.75;;
46439;SDS011;32138;50.966;6.968;2024-03-08T01:20:48;23.65;;;17.60;;
46439;SDS011;32138;50.966;6.968;2024-03-08T01:22:19;23.40;;;16.33;;
46439;SDS011;32138;50.966;6.968;2024-03-08T01:23:50;23.00;;;16.83;;
46439;SDS011;32138;50.966;6.968;2024-03-08T01:25:20;23.27;;;18.17;;
46439;SDS011;32138;50.966;6.968;2024-03-08T01:26:52;24.33;;;17.40;;
46439;SDS011;32138;50.966;6.968;2024-03-08T01:28:23;22.58;;;17.83;;
46439;SDS011;32138;50.966;6.968;2024-03-08T01:29:55;22.15;;;17.30;;
46439;SDS011;32138;50.966;6.968;2024-03-08T01:31:26;22.75;;;17.58;;
46439;SDS011;32138;50.966;6.968;2024-03-08T01:32:58;23.08;;;17.60;;
46439;SDS011;32138;50.966;6.968;2024-03-08T01:34:29;23.88;;;17.75;;
46439;SDS011;32138;50.966;6.968;2024-03-08T01:36:00;23.05;;;17.73;;
46439;SDS011;32138;50.966;6.968;2024-03-08T01:37:31;25.02;;;17.65;;
46439;SDS011;32138;50.966;6.968;2024-03-08T01:39:01;22.33;;;17.70;;
46439;SDS011;32138;50.966;6.968;2024-03-08T01:40:37;26.20;;;19.10;;
46439;SDS011;32138;50.966;6.968;2024-03-08T01:42:11;22.08;;;17.17;;
46439;SDS011;32138;50.966;6.968;2024-03-08T01:43:45;26.52;;;19.17;;
46439;SDS011;32138;50.966;6.968;2024-03-08T01:45:16;26.33;;;18.42;;
46439;SDS011;32138;50.966;6.968;2024-03-08T01:46:47;26.13;;;18.20;;
46439;SDS011;32138;50.966;6.968;2024-03-08T01:48:19;22.60;;;16.40;;
46439;SDS011;32138;50.966;6.968;2024-03-08T01:49:53;22.60;;;16.90;;
46439;SDS011;32138;50.966;6.968;2024-03-08T01:51:24;25.80;;;18.55;;
46439;SDS011;32138;50.966;6.968;2024-03-08T01:52:55;22.98;;;17.52;;
46439;SDS011;32138;50.966;6.968;2024-03-08T01:54:29;23.40;;;17.55;;
46439;SDS011;32138;50.966;6.968;2024-03-08T01:56:01;25.27;;;19.17;;
46439;SDS011;32138;50.966;6.968;2024-03-08T01:57:32;30.58;;;19.33;;
46439;SDS011;32138;50.966;6.968;2024-03-08T01:59:04;23.42;;;17.38;;
46439;SDS011;32138;50.966;6.968;2024-03-08T02:00:38;26.13;;;17.83;;
46439;SDS011;32138;50.966;6.968;2024-03-08T02:02:10;25.05;;;19.08;;
46439;SDS011;32138;50.966;6.968;2024-03-08T02:03:45;25.73;;;17.65;;
46439;SDS011;32138;50.966;6.968;2024-03-08T02:05:16;26.45;;;19.33;;
46439;SDS011;32138;50.966;6.968;2024-03-08T02:06:48;26.65;;;19.70;;
46439;SDS011;32138;50.966;6.968;2024-03-08T02:08:18;24.77;;;18.92;;
46439;SDS011;32138;50.966;6.968;2024-03-08T02:09:52;23.35;;;18.55;;
46439;SDS011;32138;50.966;6.968;2024-03-08T02:11:23;26.30;;;19.27;;
46439;SDS011;32138;50.966;6.968;2024-03-08T02:12:54;26.60;;;19.95;;
46439;SDS011;32138;50.966;6.968;2024-03-08T02:14:25;24.50;;;18.75;;
46439;SDS011;32138;50.966;6.968;2024-03-08T02:15:57;23.35;;;17.73;;
46439;SDS011;32138;50.966;6.968;2024-03-08T02:17:29;23.25;;;18.23;;
46439;SDS011;32138;50.966;6.968;2024-03-08T02:19:00;25.92;;;19.38;;
46439;SDS011;32138;50.966;6.968;2024-03-08T02:20:31;27.08;;;19.83;;
46439;SDS011;32138;50.966;6.968;2024-03-08T02:22:02;22.60;;;18.17;;
46439;SDS011;32138;50.966;6.968;2024-03-08T02:23:34;24.38;;;17.95;;
46439;SDS011;32138;50.966;6.968;2024-03-08T02:25:05;26.00;;;19.73;;
46439;SDS011;32138;50.966;6.968;2024-03-08T02:26:37;26.75;;;19.80;;
46439;SDS011;32138;50.966;6.968;2024-03-08T02:28:11;26.05;;;19.88;;
46439;SDS011;32138;50.966;6.968;2024-03-08T02:29:42;27.45;;;20.27;;
46439;SDS011;32138;50.966;6.968;2024-03-08T02:31:14;24.15;;;18.75;;
46439;SDS011;32138;50.966;6.968;2024-03-08T02:32:45;24.25;;;19.40;;
46439;SDS011;32138;50.966;6.968;2024-03-08T02:34:15;25.38;;;20.05;;
46439;SDS011;32138;50.966;6.968;2024-03-08T02:35:47;27.40;;;19.50;;
46439;SDS011;32138;50.966;6.968;2024-03-08T02:37:18;24.17;;;19.00;;
46439;SDS011;32138;50.966;6.968;2024-03-08T02:38:49;23.90;;;19.90;;
46439;SDS011;32138;50.966;6.968;2024-03-08T02:40:20;25.17;;;19.75;;
46439;SDS011;32138;50.966;6.968;2024-03-08T02:41:52;24.25;;;19.25;;
46439;SDS011;32138;50.966;6.968;2024-03-08T02:43:22;23.95;;;18.75;;
46439;SDS011;32138;50.966;6.968;2024-03-08T02:44:54;26.00;;;19.77;;
46439;SDS011;32138;50.966;6.968;2024-03-08T02:46:25;25.85;;;18.27;;
46439;SDS011;32138;50.966;6.968;2024-03-08T02:47:55;28.08;;;17.42;;
46439;SDS011;32138;50.966;6.968;2024-03-08T02:49:26;26.15;;;19.58;;
46439;SDS011;32138;50.966;6.968;2024-03-08T02:50:57;26.15;;;19.40;;
46439;SDS011;32138;50.966;6.968;2024-03-08T02:52:28;22.48;;;17.38;;
46439;SDS011;32138;50.966;6.968;2024-03-08T02:53:58;28.38;;;19.95;;
46439;SDS011;32138;50.966;6.968;2024-03-08T02:55:29;28.35;;;20.45;;
46439;SDS011;32138;50.966;6.968;2024-03-08T02:57:00;28.60;;;19.15;;
46439;SDS011;32138;50.966;6.968;2024-03-08T02:58:31;26.73;;;19.73;;
46439;SDS011;32138;50.966;6.968;2024-03-08T03:00:02;33.35;;;20.65;;
46439;SDS011;32138;50.966;6.968;2024-03-08T03:01:39;30.00;;;20.60;;
46439;SDS011;32138;50.966;6.968;2024-03-08T03:03:11;28.60;;;19.15;;
46439;SDS011;32138;50.966;6.968;2024-03-08T03:04:42;24.05;;;17.98;;
46439;SDS011;32138;50.966;6.968;2024-03-08T03:06:13;25.63;;;19.48;;
46439;SDS011;32138;50.966;6.968;2024-03-08T03:07:43;25.90;;;20.40;;
46439;SDS011;32138;50.966;6.968;2024-03-08T03:09:14;25.27;;;18.23;;
46439;SDS011;32138;50.966;6.968;2024-03-08T03:10:47;24.00;;;19.27;;
46439;SDS011;32138;50.966;6.968;2024-03-08T03:12:18;28.38;;;20.10;;
46439;SDS011;32138;50.966;6.968;2024-03-08T03:13:49;27.52;;;20.15;;
46439;SDS011;32138;50.966;6.968;2024-03-08T03:15:19;26.45;;;20.20;;
46439;SDS011;32138;50.966;6.968;2024-03-08T03:16:50;26.73;;;19.35;;
46439;SDS011;32138;50.966;6.968;2024-03-08T03:18:21;27.30;;;19.67;;
46439;SDS011;32138;50.966;6.968;2024-03-08T03:19:53;27.67;;;20.38;;
46439;SDS011;32138;50.966;6.968;2024-03-08T03:21:27;26.92;;;21.15;;
46439;SDS011;32138;50.966;6.968;2024-03-08T03:23:01;31.38;;;20.90;;
46439;SDS011;32138;50.966;6.968;2024-03-08T03:24:33;23.88;;;18.55;;
46439;SDS011;32138;50.966;6.968;2024-03-08T03:26:04;26.48;;;20.25;;
46439;SDS011;32138;50.966;6.968;2024-03-08T03:27:37;27.67;;;20.02;;
46439;SDS011;32138;50.966;6.968;2024-03-08T03:29:09;25.48;;;19.45;;
46439;SDS011;32138;50.966;6.968;2024-03-08T03:30:41;23.35;;;18.48;;
46439;SDS011;32138;50.966;6.968;2024-03-08T03:32:12;27.83;;;19.52;;
46439;SDS011;32138;50.966;6.968;2024-03-08T03:33:43;26.00;;;19.50;;
46439;SDS011;32138;50.966;6.968;2024-03-08T03:35:14;23.33;;;19.10;;
46439;SDS011;32138;50.966;6.968;2024-03-08T03:36:45;25.33;;;19.25;;
46439;SDS011;32138;50.966;6.968;2024-03-08T03:38:17;25.48;;;18.08;;
46439;SDS011;32138;50.966;6.968;2024-03-08T03:39:49;26.38;;;19.98;;
46439;SDS011;32138;50.966;6.968;2024-03-08T03:41:22;25.88;;;19.55;;
46439;SDS011;32138;50.966;6.968;2024-03-08T03:42:53;27.33;;;20.58;;
46439;SDS011;32138;50.966;6.968;2024-03-08T03:44:24;26.75;;;19.95;;
46439;SDS011;32138;50.966;6.968;2024-03-08T03:45:55;30.65;;;21.05;;
46439;SDS011;32138;50.966;6.968;2024-03-08T03:47:26;26.08;;;19.95;;
46439;SDS011;32138;50.966;6.968;2024-03-08T03:48:57;26.00;;;18.85;;
46439;SDS011;32138;50.966;6.968;2024-03-08T03:50:27;25.30;;;17.90;;
46439;SDS011;32138;50.966;6.968;2024-03-08T03:51:58;24.88;;;19.58;;
46439;SDS011;32138;50.966;6.968;2024-03-08T03:53:29;25.40;;;19.05;;
46439;SDS011;32138;50.966;6.968;2024-03-08T03:54:59;27.52;;;19.33;;
46439;SDS011;32138;50.966;6.968;2024-03-08T03:56:30;24.35;;;17.50;;
46439;SDS011;32138;50.966;6.968;2024-03-08T03:58:01;25.75;;;18.83;;
46439;SDS011;32138;50.966;6.968;2024-03-08T03:59:32;25.48;;;19.55;;
46439;SDS011;32138;50.966;6.968;2024-03-08T04:01:06;26.60;;;20.63;;
46439;SDS011;32138;50.966;6.968;2024-03-08T04:02:38;25.20;;;18.17;;
46439;SDS011;32138;50.966;6.968;2024-03-08T04:04:09;25.40;;;18.80;;
46439;SDS011;32138;50.966;6.968;2024-03-08T04:05:40;25.73;;;19.75;;
46439;SDS011;32138;50.966;6.968;2024-03-08T04:07:10;27.25;;;19.70;;
46439;SDS011;32138;50.966;6.968;2024-03-08T04:08:41;24.33;;;18.95;;
46439;SDS011;32138;50.966;6.968;2024-03-08T04:10:12;27.58;;;19.70;;
46439;SDS011;32138;50.966;6.968;2024-03-08T04:11:43;27.95;;;21.23;;
46439;SDS011;32138;50.966;6.968;2024-03-08T04:13:13;26.35;;;19.02;;
46439;SDS011;32138;50.966;6.968;2024-03-08T04:14:45;26.27;;;20.00;;
46439;SDS011;32138;50.966;6.968;2024-03-08T04:16:16;29.05;;;20.05;;
46439;SDS011;32138;50.966;6.968;2024-03-08T04:17:48;24.33;;;19.45;;
46439;SDS011;32138;50.966;6.968;2024-03-08T04:19:19;25.50;;;19.67;;
46439;SDS011;32138;50.966;6.968;2024-03-08T04:20:50;24.77;;;19.33;;
46439;SDS011;32138;50.966;6.968;2024-03-08T04:22:21;26.88;;;20.05;;
46439;SDS011;32138;50.966;6.968;2024-03-08T04:23:52;28.33;;;19.42;;
46439;SDS011;32138;50.966;6.968;2024-03-08T04:25:23;25.75;;;19.10;;
46439;SDS011;32138;50.966;6.968;2024-03-08T04:26:54;28.73;;;18.55;;
46439;SDS011;32138;50.966;6.968;2024-03-08T04:28:24;27.40;;;19.27;;
46439;SDS011;32138;50.966;6.968;2024-03-08T04:29:56;24.45;;;18.92;;
46439;SDS011;32138;50.966;6.968;2024-03-08T04:31:27;25.52;;;18.58;;
46439;SDS011;32138;50.966;6.968;2024-03-08T04:32:57;27.42;;;19.35;;
46439;SDS011;32138;50.966;6.968;2024-03-08T04:34:28;26.20;;;19.63;;
46439;SDS011;32138;50.966;6.968;2024-03-08T04:35:59;27.70;;;19.88;;
46439;SDS011;32138;50.966;6.968;2024-03-08T04:37:30;25.20;;;17.27;;
46439;SDS011;32138;50.966;6.968;2024-03-08T04:39:01;24.98;;;18.70;;
46439;SDS011;32138;50.966;6.968;2024-03-08T04:40:32;25.45;;;18.73;;
46439;SDS011;32138;50.966;6.968;2024-03-08T04:42:04;26.58;;;18.95;;
46439;SDS011;32138;50.966;6.968;2024-03-08T04:43:40;25.00;;;18.63;;
46439;SDS011;32138;50.966;6.968;2024-03-08T04:45:10;24.90;;;18.30;;
46439;SDS011;32138;50.966;6.968;2024-03-08T04:46:41;28.73;;;19.80;;
46439;SDS011;32138;50.966;6.968;2024-03-08T04:48:12;27.55;;;18.48;;
46439;SDS011;32138;50.966;6.968;2024-03-08T04:49:43;28.42;;;18.83;;
46439;SDS011;32138;50.966;6.968;2024-03-08T04:51:13;28.08;;;20.38;;
46439;SDS011;32138;50.966;6.968;2024-03-08T04:52:45;28.95;;;19.67;;
46439;SDS011;32138;50.966;6.968;2024-03-08T04:54:16;27.13;;;19.73;;
46439;SDS011;32138;50.966;6.968;2024-03-08T04:55:47;28.20;;;19.98;;
46439;SDS011;32138;50.966;6.968;2024-03-08T04:57:17;27.45;;;19.75;;
46439;SDS011;32138;50.966;6.968;2024-03-08T04:58:48;26.55;;;19.23;;
46439;SDS011;32138;50.966;6.968;2024-03-08T05:00:19;30.58;;;20.92;;
46439;SDS011;32138;50.966;6.968;2024-03-08T05:01:50;25.80;;;19.67;;
46439;SDS011;32138;50.966;6.968;2024-03-08T05:03:21;27.13;;;20.23;;
46439;SDS011;32138;50.966;6.968;2024-03-08T05:04:52;30.13;;;19.98;;
46439;SDS011;32138;50.966;6.968;2024-03-08T05:06:22;27.60;;;20.30;;
46439;SDS011;32138;50.966;6.968;2024-03-08T05:07:53;26.20;;;18.30;;
46439;SDS011;32138;50.966;6.968;2024-03-08T05:09:24;30.88;;;20.55;;
46439;SDS011;32138;50.966;6.968;2024-03-08T05:10:55;30.83;;;19.10;;
46439;SDS011;32138;50.966;6.968;2024-03-08T05:12:26;24.42;;;19.55;;
46439;SDS011;32138;50.966;6.968;2024-03-08T05:13:57;28.63;;;21.20;;
46439;SDS011;32138;50.966;6.968;2024-03-08T05:15:28;31.35;;;19.85;;
46439;SDS011;32138;50.966;6.968;2024-03-08T05:16:59;30.92;;;21.17;;
46439;SDS011;32138;50.966;6.968;2024-03-08T05:18:30;25.85;;;19.52;;
46439;SDS011;32138;50.966;6.968;2024-03-08T05:20:02;29.08;;;20.92;;
46439;SDS011;32138;50.966;6.968;2024-03-08T05:21:34;27.15;;;19.90;;
46439;SDS011;32138;50.966;6.968;2024-03-08T05:23:04;28.35;;;21.77;;
46439;SDS011;32138;50.966;6.968;2024-03-08T05:24:35;30.33;;;21.52;;
46439;SDS011;32138;50.966;6.968;2024-03-08T05:26:06;30.35;;;22.33;;
46439;SDS011;32138;50.966;6.968;2024-03-08T05:27:36;27.08;;;20.02;;
46439;SDS011;32138;50.966;6.968;2024-03-08T05:29:07;27.60;;;19.70;;
46439;SDS011;32138;50.966;6.968;2024-03-08T05:30:39;28.08;;;20.23;;
46439;SDS011;32138;50.966;6.968;2024-03-08T05:32:09;28.35;;;21.65;;
46439;SDS011;32138;50.966;6.968;2024-03-08T05:33:40;27.33;;;19.98;;
46439;SDS011;32138;50.966;6.968;2024-03-08T05:35:13;27.08;;;20.08;;
46439;SDS011;32138;50.966;6.968;2024-03-08T05:36:46;27.92;;;19.98;;
46439;SDS011;32138;50.966;6.968;2024-03-08T05:38:17;30.00;;;20.88;;
46439;SDS011;32138;50.966;6.968;2024-03-08T05:39:47;29.35;;;21.20;;
46439;SDS011;32138;50.966;6.968;2024-03-08T05:41:18;28.83;;;20.77;;
46439;SDS011;32138;50.966;6.968;2024-03-08T05:42:49;28.20;;;21.98;;
46439;SDS011;32138;50.966;6.968;2024-03-08T05:44:20;29.40;;;21.80;;
46439;SDS011;32138;50.966;6.968;2024-03-08T05:45:51;30.33;;;21.65;;
46439;SDS011;32138;50.966;6.968;2024-03-08T05:47:22;33.50;;;22.00;;
46439;SDS011;32138;50.966;6.968;2024-03-08T05:48:52;28.95;;;21.05;;
46439;SDS011;32138;50.966;6.968;2024-03-08T05:50:24;31.30;;;21.25;;
46439;SDS011;32138;50.966;6.968;2024-03-08T05:51:55;26.55;;;19.90;;
46439;SDS011;32138;50.966;6.968;2024-03-08T05:53:26;29.98;;;21.30;;
46439;SDS011;32138;50.966;6.968;2024-03-08T05:54:56;28.17;;;21.98;;
46439;SDS011;32138;50.966;6.968;2024-03-08T05:56:28;29.45;;;21.23;;
46439;SDS011;32138;50.966;6.968;2024-03-08T05:58:04;29.83;;;22.60;;
46439;SDS011;32138;50.966;6.968;2024-03-08T05:59:37;27.20;;;19.88;;
46439;SDS011;32138;50.966;6.968;2024-03-08T06:01:08;28.40;;;21.00;;
46439;SDS011;32138;50.966;6.968;2024-03-08T06:02:42;29.05;;;21.42;;
46439;SDS011;32138;50.966;6.968;2024-03-08T06:04:13;32.42;;;20.83;;
46439;SDS011;32138;50.966;6.968;2024-03-08T06:05:44;38.80;;;23.20;;
46439;SDS011;32138;50.966;6.968;2024-03-08T06:07:15;32.28;;;22.05;;
46439;SDS011;32138;50.966;6.968;2024-03-08T06:08:48;31.35;;;22.00;;
46439;SDS011;32138;50.966;6.968;2024-03-08T06:10:19;29.00;;;21.13;;
46439;SDS011;32138;50.966;6.968;2024-03-08T06:11:50;31.13;;;22.08;;
46439;SDS011;32138;50.966;6.968;2024-03-08T06:13:24;30.63;;;21.77;;
46439;SDS011;32138;50.966;6.968;2024-03-08T06:14:54;34.28;;;22.77;;
46439;SDS011;32138;50.966;6.968;2024-03-08T06:16:25;32.85;;;23.10;;
46439;SDS011;32138;50.966;6.968;2024-03-08T06:17:59;32.92;;;21.33;;
46439;SDS011;32138;50.966;6.968;2024-03-08T06:19:29;30.83;;;21.80;;
46439;SDS011;32138;50.966;6.968;2024-03-08T06:21:00;27.70;;;21.42;;
46439;SDS011;32138;50.966;6.968;2024-03-08T06:22:31;32.17;;;20.83;;
46439;SDS011;32138;50.966;6.968;2024-03-08T06:24:02;46.20;;;22.73;;
46439;SDS011;32138;50.966;6.968;2024-03-08T06:25:33;30.35;;;22.30;;
46439;SDS011;32138;50.966;6.968;2024-03-08T06:27:05;29.85;;;22.58;;
46439;SDS011;32138;50.966;6.968;2024-03-08T06:28:35;27.33;;;20.45;;
46439;SDS011;32138;50.966;6.968;2024-03-08T06:30:06;31.65;;;22.58;;
46439;SDS011;32138;50.966;6.968;2024-03-08T06:31:39;30.85;;;21.70;;
46439;SDS011;32138;50.966;6.968;2024-03-08T06:33:10;32.08;;;21.95;;
46439;SDS011;32138;50.966;6.968;2024-03-08T06:34:41;32.15;;;22.70;;
46439;SDS011;32138;50.966;6.968;2024-03-08T06:36:12;30.70;;;22.20;;
46439;SDS011;32138;50.966;6.968;2024-03-08T06:37:43;31.90;;;21.88;;
46439;SDS011;32138;50.966;6.968;2024-03-08T06:39:14;30.40;;;22.23;;
46439;SDS011;32138;50.966;6.968;2024-03-08T06:40:45;32.28;;;22.27;;
46439;SDS011;32138;50.966;6.968;2024-03-08T06:42:17;28.50;;;22.02;;
46439;SDS011;32138;50.966;6.968;2024-03-08T06:43:48;31.25;;;21.27;;
46439;SDS011;32138;50.966;6.968;2024-03-08T06:45:21;30.65;;;22.58;;
46439;SDS011;32138;50.966;6.968;2024-03-08T06:46:53;28.73;;;20.35;;
46439;SDS011;32138;50.966;6.968;2024-03-08T06:48:24;31.90;;;20.65;;
46439;SDS011;32138;50.966;6.968;2024-03-08T06:49:55;31.15;;;21.05;;
46439;SDS011;32138;50.966;6.968;2024-03-08T06:51:25;34.53;;;21.92;;
46439;SDS011;32138;50.966;6.968;2024-03-08T06:52:56;27.88;;;21.83;;
46439;SDS011;32138;50.966;6.968;2024-03-08T06:54:27;35.75;;;22.55;;
46439;SDS011;32138;50.966;6.968;2024-03-08T06:55:58;29.42;;;21.23;;
46439;SDS011;32138;50.966;6.968;2024-03-08T06:57:29;32.20;;;22.45;;
46439;SDS011;32138;50.966;6.968;2024-03-08T06:58:59;29.38;;;21.58;;
46439;SDS011;32138;50.966;6.968;2024-03-08T07:00:33;33.35;;;22.60;;
46439;SDS011;32138;50.966;6.968;2024-03-08T07:02:04;31.35;;;21.90;;
46439;SDS011;32138;50.966;6.968;2024-03-08T07:03:34;28.30;;;21.35;;
46439;SDS011;32138;50.966;6.968;2024-03-08T07:05:05;27.60;;;20.80;;
46439;SDS011;32138;50.966;6.968;2024-03-08T07:06:40;31.42;;;22.00;;
46439;SDS011;32138;50.966;6.968;2024-03-08T07:08:10;32.50;;;21.75;;
46439;SDS011;32138;50.966;6.968;2024-03-08T07:09:47;34.65;;;21.70;;
46439;SDS011;32138;50.966;6.968;2024-03-08T07:11:19;35.15;;;21.38;;
46439;SDS011;32138;50.966;6.968;2024-03-08T07:12:50;28.67;;;21.85;;
46439;SDS011;32138;50.966;6.968;2024-03-08T07:14:22;29.35;;;21.58;;
46439;SDS011;32138;50.966;6.968;2024-03-08T07:15:52;29.52;;;21.13;;
46439;SDS011;32138;50.966;6.968;2024-03-08T07:17:23;28.70;;;21.35;;
46439;SDS011;32138;50.966;6.968;2024-03-08T07:18:54;29.33;;;21.73;;
46439;SDS011;32138;50.966;6.968;2024-03-08T07:20:25;31.17;;;20.88;;
46439;SDS011;32138;50.966;6.968;2024-03-08T07:21:56;28.05;;;20.13;;
46439;SDS011;32138;50.966;6.968;2024-03-08T07:23:27;35.65;;;23.00;;
46439;SDS011;32138;50.966;6.968;2024-03-08T07:25:16;29.33;;;21.55;;
46439;SDS011;32138;50.966;6.968;2024-03-08T07:26:59;33.90;;;20.92;;
46439;SDS011;32138;50.966;6.968;2024-03-08T07:28:29;28.42;;;21.05;;
46439;SDS011;32138;50.966;6.968;2024-03-08T07:30:00;28.88;;;21.75;;
46439;SDS011;32138;50.966;6.968;2024-03-08T07:31:32;26.75;;;20.33;;
46439;SDS011;32138;50.966;6.968;2024-03-08T07:33:11;30.20;;;20.38;;
46439;SDS011;32138;50.966;6.968;2024-03-08T07:34:42;29.05;;;21.73;;
46439;SDS011;32138;50.966;6.968;2024-03-08T07:36:13;27.70;;;20.92;;
46439;SDS011;32138;50.966;6.968;2024-03-08T07:37:44;28.25;;;21.98;;
46439;SDS011;32138;50.966;6.968;2024-03-08T07:39:15;28.55;;;21.80;;
46439;SDS011;32138;50.966;6.968;2024-03-08T07:40:47;29.40;;;20.58;;
46439;SDS011;32138;50.966;6.968;2024-03-08T07:42:18;28.02;;;20.77;;
46439;SDS011;32138;50.966;6.968;2024-03-08T07:43:48;28.02;;;20.23;;
46439;SDS011;32138;50.966;6.968;2024-03-08T07:45:19;28.33;;;20.42;;
46439;SDS011;32138;50.966;6.968;2024-03-08T07:46:51;28.92;;;21.95;;
46439;SDS011;32138;50.966;6.968;2024-03-08T07:48:22;32.45;;;21.33;;
46439;SDS011;32138;50.966;6.968;2024-03-08T07:49:53;27.05;;;20.92;;
46439;SDS011;32138;50.966;6.968;2024-03-08T07:51:24;26.42;;;20.17;;
46439;SDS011;32138;50.966;6.968;2024-03-08T07:52:55;26.98;;;20.52;;
46439;SDS011;32138;50.966;6.968;2024-03-08T07:54:25;28.23;;;19.88;;
46439;SDS011;32138;50.966;6.968;2024-03-08T07:55:56;30.17;;;20.98;;
46439;SDS011;32138;50.966;6.968;2024-03-08T07:57:27;28.83;;;19.55;;
46439;SDS011;32138;50.966;6.968;2024-03-08T07:58:59;28.27;;;20.27;;
46439;SDS011;32138;50.966;6.968;2024-03-08T08:00:30;27.33;;;20.08;;
46439;SDS011;32138;50.966;6.968;2024-03-08T08:02:01;25.60;;;20.52;;
46439;SDS011;32138;50.966;6.968;2024-03-08T08:03:32;28.23;;;20.90;;
46439;SDS011;32138;50.966;6.968;2024-03-08T08:05:03;31.45;;;20.48;;
46439;SDS011;32138;50.966;6.968;2024-03-08T08:06:34;24.88;;;18.85;;
46439;SDS011;32138;50.966;6.968;2024-03-08T08:08:09;26.63;;;20.15;;
46439;SDS011;32138;50.966;6.968;2024-03-08T08:09:40;30.25;;;20.15;;
46439;SDS011;32138;50.966;6.968;2024-03-08T08:11:12;27.17;;;20.70;;
46439;SDS011;32138;50.966;6.968;2024-03-08T08:12:44;26.33;;;18.33;;
46439;SDS011;32138;50.966;6.968;2024-03-08T08:14:16;30.48;;;20.50;;
46439;SDS011;32138;50.966;6.968;2024-03-08T08:15:47;29.55;;;21.20;;
46439;SDS011;32138;50.966;6.968;2024-03-08T08:17:17;26.33;;;19.08;;
46439;SDS011;32138;50.966;6.968;2024-03-08T08:18:48;26.15;;;18.92;;
46439;SDS011;32138;50.966;6.968;2024-03-08T08:20:20;23.60;;;18.58;;
46439;SDS011;32138;50.966;6.968;2024-03-08T08:21:51;26.77;;;18.15;;
46439;SDS011;32138;50.966;6.968;2024-03-08T08:23:22;26.33;;;19.48;;
46439;SDS011;32138;50.966;6.968;2024-03-08T08:24:53;25.80;;;18.63;;
46439;SDS011;32138;50.966;6.968;2024-03-08T08:26:24;26.27;;;18.55;;
46439;SDS011;32138;50.966;6.968;2024-03-08T08:27:56;25.40;;;18.17;;
46439;SDS011;32138;50.966;6.968;2024-03-08T08:29:27;27.70;;;19.23;;
46439;SDS011;32138;50.966;6.968;2024-03-08T08:30:57;25.02;;;18.23;;
46439;SDS011;32138;50.966;6.968;2024-03-08T08:32:29;26.10;;;18.58;;
46439;SDS011;32138;50.966;6.968;2024-03-08T08:34:00;27.85;;;19.98;;
46439;SDS011;32138;50.966;6.968;2024-03-08T08:35:33;25.23;;;18.90;;
46439;SDS011;32138;50.966;6.968;2024-03-08T08:37:03;24.90;;;18.77;;
46439;SDS011;32138;50.966;6.968;2024-03-08T08:38:34;23.27;;;18.02;;
46439;SDS011;32138;50.966;6.968;2024-03-08T08:40:05;23.65;;;18.17;;
46439;SDS011;32138;50.966;6.968;2024-03-08T08:41:40;24.60;;;17.65;;
46439;SDS011;32138;50.966;6.968;2024-03-08T08:43:13;24.35;;;17.65;;
46439;SDS011;32138;50.966;6.968;2024-03-08T08:44:44;24.50;;;18.40;;
46439;SDS011;32138;50.966;6.968;2024-03-08T08:46:18;26.02;;;18.92;;
46439;SDS011;32138;50.966;6.968;2024-03-08T08:47:51;27.48;;;17.48;;
46439;SDS011;32138;50.966;6.968;2024-03-08T08:49:23;24.90;;;17.05;;
46439;SDS011;32138;50.966;6.968;2024-03-08T08:50:54;26.42;;;18.75;;
46439;SDS011;32138;50.966;6.968;2024-03-08T08:52:25;28.05;;;18.17;;
46439;SDS011;32138;50.966;6.968;2024-03-08T08:53:56;28.15;;;19.52;;